createdAt,value
2019-03-16T00:00:15.012Z,6.90
2019-03-16T00:01:19.418Z,6.90
2019-03-16T00:02:23.699Z,6.90
2019-03-16T00:03:28.119Z,6.90
2019-03-16T00:04:32.423Z,6.80
2019-03-16T00:05:36.827Z,6.80
2019-03-16T00:06:41.137Z,6.80
2019-03-16T00:07:45.544Z,6.80
2019-03-16T00:08:49.867Z,6.80
2019-03-16T00:09:54.182Z,6.80
2019-03-16T00:10:58.636Z,6.80
2019-03-16T00:12:03.064Z,6.80
2019-03-16T00:13:07.608Z,6.90
2019-03-16T00:14:11.988Z,6.90
2019-03-16T00:15:16.357Z,6.90
2019-03-16T00:16:20.775Z,6.90
2019-03-16T00:17:25.193Z,6.90
2019-03-16T00:18:29.481Z,6.90
2019-03-16T00:19:33.860Z,6.90
2019-03-16T00:20:38.218Z,7.00
2019-03-16T00:21:42.509Z,7.00
2019-03-16T00:22:48.214Z,7.00
2019-03-16T00:23:52.538Z,7.10
2019-03-16T00:24:56.848Z,7.10
2019-03-16T00:26:01.191Z,7.10
2019-03-16T00:27:05.581Z,7.10
2019-03-16T00:28:09.961Z,7.10
2019-03-16T00:29:14.313Z,7.20
2019-03-16T00:30:18.643Z,7.10
2019-03-16T00:31:22.978Z,7.20
2019-03-16T00:32:27.282Z,7.30
2019-03-16T00:33:31.565Z,7.20
2019-03-16T00:34:37.917Z,7.20
2019-03-16T00:35:42.214Z,7.20
2019-03-16T00:36:46.541Z,7.20
2019-03-16T00:37:51.196Z,7.20
2019-03-16T00:38:55.527Z,7.20
2019-03-16T00:39:59.848Z,7.20
2019-03-16T00:41:04.237Z,7.20
2019-03-16T00:42:08.617Z,7.20
2019-03-16T00:43:13.166Z,7.20
2019-03-16T00:44:17.451Z,7.20
2019-03-16T00:45:21.750Z,7.20
2019-03-16T00:46:26.067Z,7.20
2019-03-16T00:47:30.370Z,7.20
2019-03-16T00:48:34.683Z,7.20
2019-03-16T00:49:39.029Z,7.20
2019-03-16T00:50:43.366Z,7.20
2019-03-16T00:51:47.697Z,7.20
2019-03-16T00:52:52.081Z,7.30
2019-03-16T00:53:56.437Z,7.30
2019-03-16T00:55:00.792Z,7.20
2019-03-16T00:56:05.216Z,7.20
2019-03-16T00:57:09.563Z,7.20
2019-03-16T00:58:13.898Z,7.20
2019-03-16T00:59:18.206Z,7.20
2019-03-16T01:00:22.563Z,7.20
2019-03-16T01:01:26.963Z,7.20
2019-03-16T01:02:32.901Z,7.20
2019-03-16T01:03:37.519Z,7.20
2019-03-16T01:04:41.859Z,7.30
2019-03-16T01:05:46.260Z,7.30
2019-03-16T01:06:50.582Z,7.30
2019-03-16T01:07:54.984Z,7.30
2019-03-16T01:08:59.299Z,7.30
2019-03-16T01:10:03.680Z,7.30
2019-03-16T01:11:07.971Z,7.20
2019-03-16T01:12:12.347Z,7.20
2019-03-16T01:13:16.670Z,7.20
2019-03-16T01:14:21.087Z,7.20
2019-03-16T01:15:25.583Z,7.20
2019-03-16T01:16:29.900Z,7.20
2019-03-16T01:17:34.299Z,7.20
2019-03-16T01:18:38.624Z,7.30
2019-03-16T01:19:42.927Z,7.30
2019-03-16T01:20:47.234Z,7.30
2019-03-16T01:21:51.560Z,7.30
2019-03-16T01:22:55.964Z,7.30
2019-03-16T01:24:00.272Z,7.30
2019-03-16T01:25:05.032Z,7.30
2019-03-16T01:26:09.441Z,7.20
2019-03-16T01:27:13.893Z,7.20
2019-03-16T01:28:18.183Z,7.20
2019-03-16T01:29:22.520Z,7.20
2019-03-16T01:30:26.958Z,7.20
2019-03-16T01:31:31.366Z,7.20
2019-03-16T01:32:40.666Z,7.20
2019-03-16T01:33:41.849Z,7.20
2019-03-16T01:34:46.172Z,7.10
2019-03-16T01:35:50.596Z,7.20
2019-03-16T01:36:54.938Z,7.20
2019-03-16T01:37:59.304Z,7.20
2019-03-16T01:39:05.525Z,7.20
2019-03-16T01:40:09.883Z,7.20
2019-03-16T01:41:14.171Z,7.20
2019-03-16T01:42:18.509Z,7.20
2019-03-16T01:43:22.839Z,7.20
2019-03-16T01:44:27.249Z,7.20
2019-03-16T01:45:31.579Z,7.20
2019-03-16T01:46:35.974Z,7.20
2019-03-16T01:47:40.335Z,7.20
2019-03-16T01:48:44.743Z,7.20
2019-03-16T01:49:49.051Z,7.10
2019-03-16T01:50:53.402Z,7.20
2019-03-16T01:51:57.815Z,7.20
2019-03-16T01:53:02.254Z,7.10
2019-03-16T01:54:06.566Z,7.10
2019-03-16T01:55:11.461Z,7.10
2019-03-16T01:56:15.755Z,7.10
2019-03-16T01:57:20.067Z,7.00
2019-03-16T01:58:24.458Z,7.00
2019-03-16T01:59:28.790Z,7.00
2019-03-16T02:00:33.247Z,7.00
2019-03-16T02:01:37.559Z,7.00
2019-03-16T02:02:54.487Z,7.00
2019-03-16T02:03:48.064Z,7.00
2019-03-16T02:04:52.515Z,7.00
2019-03-16T02:05:56.859Z,7.00
2019-03-16T02:07:01.189Z,7.00
2019-03-16T02:08:05.473Z,7.00
2019-03-16T02:09:09.777Z,7.00
2019-03-16T02:10:14.145Z,7.00
2019-03-16T02:11:18.440Z,7.00
2019-03-16T02:12:22.762Z,7.10
2019-03-16T02:13:27.122Z,7.10
2019-03-16T02:14:31.495Z,7.10
2019-03-16T02:15:35.902Z,7.10
2019-03-16T02:16:40.295Z,7.10
2019-03-16T02:17:44.730Z,7.10
2019-03-16T02:18:49.346Z,7.20
2019-03-16T02:19:53.719Z,7.20
2019-03-16T02:20:58.098Z,7.20
2019-03-16T02:22:02.492Z,7.20
2019-03-16T02:23:06.817Z,7.30
2019-03-16T02:24:11.140Z,7.20
2019-03-16T02:25:21.649Z,7.30
2019-03-16T02:26:26.121Z,7.20
2019-03-16T02:27:30.530Z,7.20
2019-03-16T02:28:34.939Z,7.20
2019-03-16T02:29:39.245Z,7.20
2019-03-16T02:30:43.655Z,7.20
2019-03-16T02:31:48.037Z,7.10
2019-03-16T02:32:52.412Z,7.10
2019-03-16T02:33:56.725Z,7.10
2019-03-16T02:35:01.097Z,7.10
2019-03-16T02:36:05.569Z,7.10
2019-03-16T02:37:10.021Z,7.10
2019-03-16T02:38:14.575Z,7.10
2019-03-16T02:39:19.285Z,7.10
2019-03-16T02:40:23.695Z,7.20
2019-03-16T02:41:28.018Z,7.10
2019-03-16T02:42:32.426Z,7.10
2019-03-16T02:43:36.832Z,7.00
2019-03-16T02:44:41.218Z,7.00
2019-03-16T02:45:45.699Z,7.00
2019-03-16T02:46:50.111Z,7.00
2019-03-16T02:47:54.623Z,7.00
2019-03-16T02:48:58.926Z,7.00
2019-03-16T02:50:03.817Z,7.00
2019-03-16T02:51:08.180Z,7.00
2019-03-16T02:52:12.534Z,7.00
2019-03-16T02:53:16.871Z,7.00
2019-03-16T02:54:21.217Z,7.00
2019-03-16T02:55:25.687Z,7.00
2019-03-16T02:56:30.107Z,7.00
2019-03-16T02:57:34.600Z,7.00
2019-03-16T02:58:39.021Z,7.10
2019-03-16T02:59:43.440Z,7.10
2019-03-16T03:00:47.816Z,7.10
2019-03-16T03:01:52.162Z,7.10
2019-03-16T03:02:56.734Z,7.10
2019-03-16T03:04:01.062Z,7.10
2019-03-16T03:05:06.384Z,7.00
2019-03-16T03:06:10.765Z,7.00
2019-03-16T03:07:15.108Z,7.00
2019-03-16T03:08:19.426Z,7.00
2019-03-16T03:09:23.833Z,7.00
2019-03-16T03:10:28.210Z,7.00
2019-03-16T03:11:32.532Z,7.00
2019-03-16T03:12:36.930Z,7.00
2019-03-16T03:13:41.431Z,7.00
2019-03-16T03:14:45.852Z,7.00
2019-03-16T03:15:50.245Z,7.00
2019-03-16T03:16:54.575Z,7.10
2019-03-16T03:17:59.045Z,7.00
2019-03-16T03:19:03.404Z,7.10
2019-03-16T03:20:08.730Z,7.10
2019-03-16T03:21:13.110Z,7.00
2019-03-16T03:22:17.518Z,7.00
2019-03-16T03:23:21.839Z,7.00
2019-03-16T03:24:26.227Z,7.00
2019-03-16T03:25:30.597Z,7.00
2019-03-16T03:26:34.970Z,7.00
2019-03-16T03:27:39.410Z,6.90
2019-03-16T03:28:43.735Z,6.90
2019-03-16T03:29:48.078Z,6.90
2019-03-16T03:30:53.414Z,6.90
2019-03-16T03:31:57.813Z,6.80
2019-03-16T03:33:02.255Z,6.80
2019-03-16T03:34:06.750Z,6.90
2019-03-16T03:35:11.227Z,6.90
2019-03-16T03:36:16.926Z,6.90
2019-03-16T03:37:21.248Z,6.90
2019-03-16T03:38:25.612Z,6.90
2019-03-16T03:39:30.036Z,6.90
2019-03-16T03:40:34.629Z,6.90
2019-03-16T03:41:39.010Z,6.90
2019-03-16T03:42:43.455Z,6.80
2019-03-16T03:43:48.032Z,6.90
2019-03-16T03:44:52.420Z,6.90
2019-03-16T03:45:56.870Z,6.90
2019-03-16T03:47:01.171Z,6.90
2019-03-16T03:48:05.606Z,6.90
2019-03-16T03:49:10.070Z,6.90
2019-03-16T03:50:14.541Z,6.90
2019-03-16T03:51:18.956Z,6.90
2019-03-16T03:52:23.360Z,6.80
2019-03-16T03:53:27.851Z,6.80
2019-03-16T03:54:32.388Z,6.80
2019-03-16T03:55:36.722Z,6.80
2019-03-16T03:56:41.288Z,6.80
2019-03-16T03:57:45.675Z,6.90
2019-03-16T03:58:50.197Z,6.80
2019-03-16T03:59:54.633Z,6.80
2019-03-16T04:00:59.161Z,6.80
2019-03-16T04:02:03.631Z,6.80
2019-03-16T04:03:08.052Z,6.80
2019-03-16T04:04:15.767Z,6.80
2019-03-16T04:05:18.774Z,6.80
2019-03-16T04:06:23.221Z,6.80
2019-03-16T04:07:28.096Z,6.90
2019-03-16T04:08:32.509Z,6.80
2019-03-16T04:09:36.960Z,6.80
2019-03-16T04:10:41.287Z,6.80
2019-03-16T04:11:45.604Z,6.70
2019-03-16T04:12:51.063Z,6.70
2019-03-16T04:13:55.408Z,6.70
2019-03-16T04:14:59.797Z,6.70
2019-03-16T04:16:04.415Z,6.70
2019-03-16T04:17:08.993Z,6.70
2019-03-16T04:18:13.324Z,6.70
2019-03-16T04:19:17.676Z,6.70
2019-03-16T04:20:22.214Z,6.60
2019-03-16T04:21:26.552Z,6.60
2019-03-16T04:22:31.017Z,6.60
2019-03-16T04:23:35.504Z,6.60
2019-03-16T04:24:39.918Z,6.60
2019-03-16T04:25:44.251Z,6.50
2019-03-16T04:26:48.652Z,6.50
2019-03-16T04:27:52.986Z,6.50
2019-03-16T04:28:57.328Z,6.50
2019-03-16T04:30:01.670Z,6.40
2019-03-16T04:31:06.280Z,6.40
2019-03-16T04:32:10.687Z,6.40
2019-03-16T04:33:15.125Z,6.40
2019-03-16T04:34:29.045Z,6.40
2019-03-16T04:35:25.610Z,6.40
2019-03-16T04:36:29.929Z,6.40
2019-03-16T04:37:34.270Z,6.40
2019-03-16T04:38:38.656Z,6.40
2019-03-16T04:39:43.111Z,6.40
2019-03-16T04:40:47.514Z,6.40
2019-03-16T04:41:51.917Z,6.40
2019-03-16T04:42:56.421Z,6.40
2019-03-16T04:44:00.853Z,6.40
2019-03-16T04:45:06.238Z,6.40
2019-03-16T04:46:10.724Z,6.40
2019-03-16T04:47:15.292Z,6.50
2019-03-16T04:48:19.680Z,6.50
2019-03-16T04:49:24.016Z,6.50
2019-03-16T04:50:28.340Z,6.50
2019-03-16T04:51:32.691Z,6.50
2019-03-16T04:52:37.081Z,6.50
2019-03-16T04:53:41.421Z,6.50
2019-03-16T04:54:45.746Z,6.50
2019-03-16T04:55:50.133Z,6.50
2019-03-16T04:56:54.600Z,6.50
2019-03-16T04:57:58.977Z,6.40
2019-03-16T04:59:03.314Z,6.40
2019-03-16T05:00:07.847Z,6.40
2019-03-16T05:01:12.167Z,6.40
2019-03-16T05:02:16.495Z,6.40
2019-03-16T05:03:20.815Z,6.40
2019-03-16T05:04:25.156Z,6.40
2019-03-16T05:05:29.547Z,6.40
2019-03-16T05:06:33.872Z,6.40
2019-03-16T05:07:38.231Z,6.40
2019-03-16T05:08:42.531Z,6.30
2019-03-16T05:09:46.864Z,6.30
2019-03-16T05:10:51.295Z,6.30
2019-03-16T05:11:55.613Z,6.40
2019-03-16T05:13:00.010Z,6.30
2019-03-16T05:14:04.559Z,6.30
2019-03-16T05:15:09.235Z,6.30
2019-03-16T05:16:13.579Z,6.30
2019-03-16T05:17:17.915Z,6.30
2019-03-16T05:18:22.235Z,6.30
2019-03-16T05:19:26.623Z,6.30
2019-03-16T05:20:30.940Z,6.30
2019-03-16T05:21:35.294Z,6.30
2019-03-16T05:22:39.736Z,6.30
2019-03-16T05:23:44.204Z,6.30
2019-03-16T05:24:48.552Z,6.30
2019-03-16T05:25:52.948Z,6.30
2019-03-16T05:26:57.296Z,6.30
2019-03-16T05:28:01.651Z,6.20
2019-03-16T05:29:05.993Z,6.30
2019-03-16T05:30:11.320Z,6.20
2019-03-16T05:31:15.711Z,6.20
2019-03-16T05:32:20.062Z,6.20
2019-03-16T05:33:24.441Z,6.20
2019-03-16T05:34:28.791Z,6.10
2019-03-16T05:35:33.130Z,6.10
2019-03-16T05:36:37.651Z,6.10
2019-03-16T05:37:41.970Z,6.10
2019-03-16T05:38:46.439Z,6.10
2019-03-16T05:39:50.927Z,6.00
2019-03-16T05:40:55.251Z,6.00
2019-03-16T05:41:59.596Z,6.00
2019-03-16T05:43:04.118Z,5.90
2019-03-16T05:44:08.552Z,5.90
2019-03-16T05:45:12.936Z,5.90
2019-03-16T05:46:17.318Z,5.90
2019-03-16T05:47:22.052Z,5.90
2019-03-16T05:48:26.470Z,5.80
2019-03-16T05:49:30.886Z,5.80
2019-03-16T05:50:35.284Z,5.80
2019-03-16T05:51:39.722Z,5.80
2019-03-16T05:52:44.184Z,5.80
2019-03-16T05:53:48.516Z,5.80
2019-03-16T05:54:52.964Z,5.80
2019-03-16T05:55:57.369Z,5.80
2019-03-16T05:57:01.680Z,5.80
2019-03-16T05:58:06.024Z,5.80
2019-03-16T05:59:10.409Z,5.80
2019-03-16T06:00:14.988Z,5.90
2019-03-16T06:01:22.728Z,5.90
2019-03-16T06:02:27.219Z,6.00
2019-03-16T06:03:31.730Z,6.00
2019-03-16T06:04:38.501Z,6.00
2019-03-16T06:05:42.165Z,6.00
2019-03-16T06:06:46.831Z,6.00
2019-03-16T06:07:54.572Z,6.10
2019-03-16T06:08:59.032Z,6.10
2019-03-16T06:10:05.647Z,6.10
2019-03-16T06:11:15.072Z,6.10
2019-03-16T06:12:24.107Z,6.10
2019-03-16T06:13:28.436Z,6.10
2019-03-16T06:14:32.824Z,6.10
2019-03-16T06:15:37.342Z,6.10
2019-03-16T06:16:42.672Z,6.10
2019-03-16T06:17:49.357Z,6.10
2019-03-16T06:18:56.524Z,6.10
2019-03-16T06:20:00.839Z,6.10
2019-03-16T06:21:05.272Z,6.10
2019-03-16T06:22:09.704Z,6.00
2019-03-16T06:23:14.318Z,6.00
2019-03-16T06:24:18.856Z,6.00
2019-03-16T06:25:26.695Z,5.90
2019-03-16T06:26:36.780Z,5.90
2019-03-16T06:27:41.270Z,5.90
2019-03-16T06:28:45.617Z,5.90
2019-03-16T06:29:52.277Z,5.90
2019-03-16T06:30:56.678Z,5.90
2019-03-16T06:32:05.600Z,5.80
2019-03-16T06:33:10.012Z,5.80
2019-03-16T06:34:14.524Z,5.80
2019-03-16T06:35:25.062Z,5.80
2019-03-16T06:36:32.655Z,5.90
2019-03-16T06:37:37.193Z,5.80
2019-03-16T06:38:41.791Z,5.90
2019-03-16T06:39:46.155Z,5.90
2019-03-16T06:40:50.594Z,5.90
2019-03-16T06:41:55.019Z,5.90
2019-03-16T06:43:00.619Z,5.90
2019-03-16T06:44:07.224Z,6.00
2019-03-16T06:45:11.783Z,6.00
2019-03-16T06:46:17.939Z,6.10
2019-03-16T06:47:33.229Z,6.10
2019-03-16T06:48:40.034Z,6.20
2019-03-16T06:49:49.261Z,6.30
2019-03-16T06:50:53.591Z,6.30
2019-03-16T06:51:58.012Z,6.40
2019-03-16T06:53:02.335Z,6.50
2019-03-16T06:54:06.639Z,6.60
2019-03-16T06:55:11.748Z,6.60
2019-03-16T06:56:16.181Z,6.70
2019-03-16T06:57:20.603Z,6.70
2019-03-16T06:58:24.938Z,6.80
2019-03-16T06:59:29.321Z,6.80
2019-03-16T07:00:33.692Z,6.80
2019-03-16T07:01:38.081Z,6.80
2019-03-16T07:02:42.518Z,6.80
2019-03-16T07:03:46.994Z,6.80
2019-03-16T07:04:51.391Z,6.80
2019-03-16T07:05:55.743Z,6.80
2019-03-16T07:07:00.217Z,6.80
2019-03-16T07:08:04.713Z,6.80
2019-03-16T07:09:09.597Z,6.80
2019-03-16T07:10:14.124Z,6.80
2019-03-16T07:11:18.474Z,6.80
2019-03-16T07:12:22.888Z,6.80
2019-03-16T07:13:28.487Z,6.80
2019-03-16T07:14:32.811Z,6.80
2019-03-16T07:15:37.963Z,6.90
2019-03-16T07:16:42.407Z,6.90
2019-03-16T07:17:46.786Z,6.90
2019-03-16T07:18:58.808Z,7.00
2019-03-16T07:19:59.642Z,7.00
2019-03-16T07:21:04.173Z,7.10
2019-03-16T07:22:08.493Z,7.10
2019-03-16T07:23:12.922Z,7.10
2019-03-16T07:24:17.369Z,7.10
2019-03-16T07:25:21.729Z,7.10
2019-03-16T07:26:26.093Z,7.10
2019-03-16T07:27:30.527Z,7.20
2019-03-16T07:28:34.865Z,7.20
2019-03-16T07:29:39.238Z,7.20
2019-03-16T07:30:45.010Z,7.30
2019-03-16T07:31:49.964Z,7.30
2019-03-16T07:32:54.733Z,7.30
2019-03-16T07:33:59.743Z,7.40
2019-03-16T07:35:04.919Z,7.40
2019-03-16T07:36:10.073Z,7.40
2019-03-16T07:37:14.660Z,7.40
2019-03-16T07:38:19.446Z,7.40
2019-03-16T07:39:23.909Z,7.40
2019-03-16T07:40:28.274Z,7.40
2019-03-16T07:41:32.709Z,7.50
2019-03-16T07:42:37.015Z,7.50
2019-03-16T07:43:41.369Z,7.60
2019-03-16T07:44:45.875Z,7.60
2019-03-16T07:45:50.271Z,7.60
2019-03-16T07:46:54.604Z,7.60
2019-03-16T07:47:59.005Z,7.70
2019-03-16T07:49:03.389Z,7.70
2019-03-16T07:50:08.635Z,7.80
2019-03-16T07:51:13.001Z,7.80
2019-03-16T07:52:17.652Z,7.80
2019-03-16T07:53:21.964Z,7.90
2019-03-16T07:54:26.342Z,7.90
2019-03-16T07:55:30.795Z,7.90
2019-03-16T07:56:35.217Z,8.00
2019-03-16T07:57:40.810Z,8.00
2019-03-16T07:58:45.580Z,8.00
2019-03-16T07:59:49.890Z,8.10
2019-03-16T08:00:54.608Z,8.10
2019-03-16T08:01:59.772Z,8.00
2019-03-16T08:03:05.236Z,8.00
2019-03-16T08:04:09.576Z,8.00
2019-03-16T08:05:18.767Z,8.00
2019-03-16T08:06:20.021Z,8.10
2019-03-16T08:07:24.496Z,8.00
2019-03-16T08:08:28.829Z,8.10
2019-03-16T08:09:33.170Z,8.00
2019-03-16T08:10:37.624Z,8.00
2019-03-16T08:11:41.985Z,8.10
2019-03-16T08:12:46.438Z,8.10
2019-03-16T08:13:50.777Z,8.10
2019-03-16T08:14:55.219Z,8.20
2019-03-16T08:15:59.601Z,8.20
2019-03-16T08:17:03.994Z,8.20
2019-03-16T08:18:08.361Z,8.20
2019-03-16T08:19:12.938Z,8.20
2019-03-16T08:20:17.316Z,8.30
2019-03-16T08:21:21.813Z,8.20
2019-03-16T08:22:26.415Z,8.30
2019-03-16T08:23:30.817Z,8.30
2019-03-16T08:24:35.173Z,8.30
2019-03-16T08:25:39.592Z,8.40
2019-03-16T08:26:44.020Z,8.40
2019-03-16T08:27:54.150Z,8.40
2019-03-16T08:28:54.572Z,8.50
2019-03-16T08:29:58.984Z,8.50
2019-03-16T08:31:03.412Z,8.50
2019-03-16T08:32:07.716Z,8.60
2019-03-16T08:33:12.077Z,8.60
2019-03-16T08:34:16.517Z,8.60
2019-03-16T08:35:20.945Z,8.70
2019-03-16T08:36:25.380Z,8.70
2019-03-16T08:37:29.896Z,8.70
2019-03-16T08:38:34.295Z,8.70
2019-03-16T08:39:38.694Z,8.70
2019-03-16T08:40:43.191Z,8.70
2019-03-16T08:41:47.511Z,8.70
2019-03-16T08:42:51.886Z,8.70
2019-03-16T08:43:56.243Z,8.70
2019-03-16T08:45:00.639Z,8.70
2019-03-16T08:46:04.987Z,8.80
2019-03-16T08:47:09.413Z,8.80
2019-03-16T08:48:22.651Z,8.80
2019-03-16T08:49:19.852Z,8.80
2019-03-16T08:50:24.192Z,8.80
2019-03-16T08:51:28.493Z,8.80
2019-03-16T08:52:32.911Z,8.80
2019-03-16T08:53:37.249Z,8.80
2019-03-16T08:54:41.561Z,8.90
2019-03-16T08:55:45.895Z,9.00
2019-03-16T08:56:50.361Z,9.00
2019-03-16T08:58:05.624Z,9.00
2019-03-16T08:59:00.843Z,9.00
2019-03-16T09:00:06.030Z,9.00
2019-03-16T09:01:10.454Z,8.90
2019-03-16T09:02:15.017Z,8.90
2019-03-16T09:03:19.414Z,8.90
2019-03-16T09:04:23.787Z,8.80
2019-03-16T09:05:28.227Z,8.80
2019-03-16T09:06:33.533Z,8.70
2019-03-16T09:07:37.836Z,8.60
2019-03-16T09:08:42.168Z,8.60
2019-03-16T09:09:46.508Z,8.60
2019-03-16T09:10:50.992Z,8.60
2019-03-16T09:11:58.137Z,8.60
2019-03-16T09:13:01.420Z,8.60
2019-03-16T09:14:05.955Z,8.50
2019-03-16T09:15:11.107Z,8.50
2019-03-16T09:16:15.433Z,8.50
2019-03-16T09:17:19.812Z,8.50
2019-03-16T09:18:24.368Z,8.40
2019-03-16T09:19:28.799Z,8.40
2019-03-16T09:20:33.166Z,8.30
2019-03-16T09:21:37.623Z,8.30
2019-03-16T09:22:41.923Z,8.30
2019-03-16T09:23:46.356Z,8.20
2019-03-16T09:24:50.770Z,8.10
2019-03-16T09:25:55.164Z,8.10
2019-03-16T09:26:59.506Z,8.00
2019-03-16T09:28:03.913Z,8.00
2019-03-16T09:29:14.842Z,7.90
2019-03-16T09:30:14.558Z,7.90
2019-03-16T09:31:18.884Z,7.80
2019-03-16T09:32:23.201Z,7.80
2019-03-16T09:33:27.602Z,7.80
2019-03-16T09:34:32.072Z,7.70
2019-03-16T09:35:36.387Z,7.70
2019-03-16T09:36:40.697Z,7.70
2019-03-16T09:37:45.212Z,7.70
2019-03-16T09:38:49.571Z,7.70
2019-03-16T09:39:53.905Z,7.80
2019-03-16T09:40:58.224Z,7.70
2019-03-16T09:42:02.535Z,7.60
2019-03-16T09:43:06.874Z,7.60
2019-03-16T09:44:11.257Z,7.60
2019-03-16T09:45:15.770Z,7.60
2019-03-16T09:46:20.084Z,7.50
2019-03-16T09:47:24.471Z,7.50
2019-03-16T09:48:29.051Z,7.50
2019-03-16T09:49:33.384Z,7.50
2019-03-16T09:50:38.035Z,7.50
2019-03-16T09:51:42.343Z,7.50
2019-03-16T09:52:46.670Z,7.50
2019-03-16T09:53:51.080Z,7.60
2019-03-16T09:54:55.486Z,7.60
2019-03-16T09:55:59.883Z,7.60
2019-03-16T09:57:04.326Z,7.60
2019-03-16T09:58:08.762Z,7.60
2019-03-16T09:59:13.112Z,7.60
2019-03-16T10:00:18.715Z,7.70
2019-03-16T10:01:23.115Z,7.70
2019-03-16T10:02:27.499Z,7.70
2019-03-16T10:03:31.875Z,7.80
2019-03-16T10:04:36.244Z,7.90
2019-03-16T10:05:40.681Z,8.00
2019-03-16T10:06:45.157Z,8.10
2019-03-16T10:07:49.460Z,8.10
2019-03-16T10:08:53.780Z,8.30
2019-03-16T10:09:58.224Z,8.30
2019-03-16T10:11:02.808Z,8.50
2019-03-16T10:12:07.154Z,8.50
2019-03-16T10:13:11.481Z,8.60
2019-03-16T10:14:16.051Z,8.70
2019-03-16T10:15:20.377Z,8.80
2019-03-16T10:16:24.789Z,8.80
2019-03-16T10:17:29.180Z,8.90
2019-03-16T10:18:33.542Z,8.90
2019-03-16T10:19:37.962Z,8.90
2019-03-16T10:20:42.453Z,8.90
2019-03-16T10:21:46.830Z,8.90
2019-03-16T10:22:51.124Z,8.90
2019-03-16T10:23:55.480Z,9.00
2019-03-16T10:24:59.911Z,9.00
2019-03-16T10:26:04.398Z,9.00
2019-03-16T10:27:08.726Z,9.00
2019-03-16T10:28:13.102Z,9.10
2019-03-16T10:29:17.500Z,9.10
2019-03-16T10:30:21.885Z,9.20
2019-03-16T10:31:26.219Z,9.30
2019-03-16T10:32:30.749Z,9.30
2019-03-16T10:33:35.202Z,9.30
2019-03-16T10:34:39.527Z,9.40
2019-03-16T10:35:43.923Z,9.50
2019-03-16T10:36:48.258Z,9.50
2019-03-16T10:37:52.636Z,9.60
2019-03-16T10:38:56.954Z,9.70
2019-03-16T10:40:01.438Z,9.70
2019-03-16T10:41:05.975Z,9.70
2019-03-16T10:42:10.370Z,9.70
2019-03-16T10:43:14.735Z,9.80
2019-03-16T10:44:19.032Z,9.80
2019-03-16T10:45:23.467Z,9.90
2019-03-16T10:46:27.825Z,10.00
2019-03-16T10:47:32.289Z,9.90
2019-03-16T10:48:36.669Z,9.80
2019-03-16T10:49:41.006Z,9.70
2019-03-16T10:50:45.337Z,9.80
2019-03-16T10:51:49.671Z,9.80
2019-03-16T10:52:53.977Z,9.70
2019-03-16T10:53:58.320Z,9.60
2019-03-16T10:55:02.690Z,9.50
2019-03-16T10:56:07.328Z,9.50
2019-03-16T10:57:12.076Z,9.40
2019-03-16T10:58:16.434Z,9.30
2019-03-16T10:59:20.760Z,9.40
2019-03-16T11:00:25.076Z,9.40
2019-03-16T11:01:29.505Z,9.40
2019-03-16T11:02:33.846Z,9.50
2019-03-16T11:03:39.608Z,9.50
2019-03-16T11:04:44.360Z,9.50
2019-03-16T11:05:48.831Z,9.50
2019-03-16T11:06:53.171Z,9.50
2019-03-16T11:07:57.518Z,9.30
2019-03-16T11:09:01.975Z,9.20
2019-03-16T11:10:06.635Z,9.10
2019-03-16T11:11:11.236Z,9.00
2019-03-16T11:12:15.556Z,8.90
2019-03-16T11:13:19.905Z,8.70
2019-03-16T11:14:24.224Z,8.60
2019-03-16T11:15:28.647Z,8.50
2019-03-16T11:16:32.997Z,8.30
2019-03-16T11:17:37.456Z,8.10
2019-03-16T11:18:41.844Z,8.00
2019-03-16T11:19:46.161Z,7.90
2019-03-16T11:20:50.499Z,7.80
2019-03-16T11:21:54.825Z,7.70
2019-03-16T11:22:59.148Z,7.70
2019-03-16T11:24:03.557Z,7.70
2019-03-16T11:25:07.997Z,7.60
2019-03-16T11:26:12.339Z,7.50
2019-03-16T11:27:17.351Z,7.50
2019-03-16T11:28:21.922Z,7.50
2019-03-16T11:29:26.323Z,7.40
2019-03-16T11:30:30.872Z,7.40
2019-03-16T11:31:35.264Z,7.30
2019-03-16T11:32:39.637Z,7.20
2019-03-16T11:33:44.077Z,7.10
2019-03-16T11:34:48.459Z,7.10
2019-03-16T11:35:52.780Z,7.00
2019-03-16T11:36:57.096Z,6.90
2019-03-16T11:38:01.476Z,6.90
2019-03-16T11:39:08.720Z,6.80
2019-03-16T11:40:13.941Z,6.80
2019-03-16T11:41:18.569Z,6.70
2019-03-16T11:42:23.013Z,6.70
2019-03-16T11:43:27.443Z,6.60
2019-03-16T11:44:31.841Z,6.50
2019-03-16T11:45:36.266Z,6.50
2019-03-16T11:46:43.158Z,6.40
2019-03-16T11:47:47.463Z,6.40
2019-03-16T11:48:51.906Z,6.40
2019-03-16T11:49:56.269Z,6.40
2019-03-16T11:51:00.600Z,6.40
2019-03-16T11:52:07.940Z,6.40
2019-03-16T11:53:12.332Z,6.30
2019-03-16T11:54:16.846Z,6.30
2019-03-16T11:55:21.397Z,6.20
2019-03-16T11:56:25.699Z,6.30
2019-03-16T11:57:30.036Z,6.30
2019-03-16T11:58:34.343Z,6.40
2019-03-16T11:59:38.639Z,6.40
2019-03-16T12:00:43.044Z,6.40
2019-03-16T12:01:47.392Z,6.30
2019-03-16T12:02:52.841Z,6.30
2019-03-16T12:03:57.581Z,6.20
2019-03-16T12:05:02.038Z,6.10
2019-03-16T12:06:06.525Z,6.10
2019-03-16T12:07:10.833Z,6.10
2019-03-16T12:08:15.263Z,6.10
2019-03-16T12:09:19.648Z,6.10
2019-03-16T12:10:24.096Z,6.10
2019-03-16T12:11:28.422Z,6.10
2019-03-16T12:12:32.803Z,6.10
2019-03-16T12:13:37.178Z,6.00
2019-03-16T12:14:41.503Z,6.00
2019-03-16T12:15:45.837Z,5.90
2019-03-16T12:16:50.239Z,5.90
2019-03-16T12:17:54.704Z,5.90
2019-03-16T12:18:59.050Z,5.90
2019-03-16T12:20:03.834Z,6.00
2019-03-16T12:21:08.272Z,6.10
2019-03-16T12:22:12.563Z,6.10
2019-03-16T12:23:16.989Z,6.10
2019-03-16T12:24:21.502Z,6.20
2019-03-16T12:25:26.084Z,6.20
2019-03-16T12:26:30.504Z,6.30
2019-03-16T12:27:35.064Z,6.30
2019-03-16T12:28:39.376Z,6.40
2019-03-16T12:29:43.750Z,6.40
2019-03-16T12:30:48.119Z,6.40
2019-03-16T12:31:52.520Z,6.40
2019-03-16T12:32:56.962Z,6.40
2019-03-16T12:34:01.293Z,6.40
2019-03-16T12:35:06.540Z,6.50
2019-03-16T12:36:10.910Z,6.40
2019-03-16T12:37:15.287Z,6.40
2019-03-16T12:38:19.780Z,6.30
2019-03-16T12:39:24.126Z,6.30
2019-03-16T12:40:28.667Z,6.20
2019-03-16T12:41:33.089Z,6.20
2019-03-16T12:42:37.576Z,6.20
2019-03-16T12:43:41.961Z,6.20
2019-03-16T12:44:46.407Z,6.20
2019-03-16T12:45:50.884Z,6.30
2019-03-16T12:46:55.213Z,6.30
2019-03-16T12:47:59.581Z,6.30
2019-03-16T12:49:04.109Z,6.40
2019-03-16T12:50:09.495Z,6.40
2019-03-16T12:51:13.908Z,6.40
2019-03-16T12:52:18.489Z,6.40
2019-03-16T12:53:22.965Z,6.40
2019-03-16T12:54:27.520Z,6.30
2019-03-16T12:55:31.866Z,6.30
2019-03-16T12:56:36.234Z,6.30
2019-03-16T12:57:41.656Z,6.30
2019-03-16T12:58:45.975Z,6.30
2019-03-16T12:59:50.559Z,6.40
2019-03-16T13:00:54.916Z,6.30
2019-03-16T13:01:59.404Z,6.30
2019-03-16T13:03:06.193Z,6.30
2019-03-16T13:04:10.743Z,6.30
2019-03-16T13:05:15.275Z,6.30
2019-03-16T13:06:20.637Z,6.30
2019-03-16T13:07:25.363Z,6.30
2019-03-16T13:08:29.775Z,6.20
2019-03-16T13:09:34.115Z,6.20
2019-03-16T13:10:38.445Z,6.20
2019-03-16T13:11:42.894Z,6.10
2019-03-16T13:12:47.412Z,6.10
2019-03-16T13:13:51.772Z,6.10
2019-03-16T13:14:56.357Z,6.10
2019-03-16T13:16:00.765Z,6.10
2019-03-16T13:17:05.229Z,6.00
2019-03-16T13:18:09.712Z,6.00
2019-03-16T13:19:14.055Z,6.00
2019-03-16T13:20:18.536Z,5.90
2019-03-16T13:21:22.894Z,5.90
2019-03-16T13:22:27.303Z,6.00
2019-03-16T13:23:31.714Z,6.00
2019-03-16T13:24:36.126Z,6.10
2019-03-16T13:25:40.444Z,6.20
2019-03-16T13:26:44.774Z,6.20
2019-03-16T13:27:49.068Z,6.20
2019-03-16T13:28:53.464Z,6.20
2019-03-16T13:29:59.230Z,6.20
2019-03-16T13:31:03.830Z,6.20
2019-03-16T13:32:08.186Z,6.10
2019-03-16T13:33:12.590Z,6.10
2019-03-16T13:34:16.920Z,6.00
2019-03-16T13:35:21.433Z,6.00
2019-03-16T13:36:25.872Z,6.00
2019-03-16T13:37:30.245Z,6.00
2019-03-16T13:38:35.049Z,6.10
2019-03-16T13:39:39.417Z,6.10
2019-03-16T13:40:43.862Z,6.20
2019-03-16T13:41:48.441Z,6.20
2019-03-16T13:42:53.119Z,6.30
2019-03-16T13:43:57.551Z,6.30
2019-03-16T13:45:02.123Z,6.40
2019-03-16T13:46:10.397Z,6.40
2019-03-16T13:47:14.837Z,6.40
2019-03-16T13:48:19.194Z,6.50
2019-03-16T13:49:23.581Z,6.50
2019-03-16T13:50:27.969Z,6.50
2019-03-16T13:51:34.452Z,6.50
2019-03-16T13:52:38.844Z,6.50
2019-03-16T13:53:43.214Z,6.50
2019-03-16T13:54:47.600Z,6.60
2019-03-16T13:55:52.330Z,6.60
2019-03-16T13:56:56.903Z,6.60
2019-03-16T13:58:01.289Z,6.50
2019-03-16T13:59:05.781Z,6.50
2019-03-16T14:00:12.490Z,6.50
2019-03-16T14:01:17.007Z,6.40
2019-03-16T14:02:21.389Z,6.40
2019-03-16T14:03:25.705Z,6.40
2019-03-16T14:04:30.014Z,6.50
2019-03-16T14:05:34.649Z,6.50
2019-03-16T14:06:39.197Z,6.40
2019-03-16T14:07:43.878Z,6.40
2019-03-16T14:08:48.235Z,6.40
2019-03-16T14:09:52.737Z,6.40
2019-03-16T14:10:57.088Z,6.40
2019-03-16T14:12:01.813Z,6.40
2019-03-16T14:13:06.697Z,6.40
2019-03-16T14:14:11.110Z,6.40
2019-03-16T14:15:15.514Z,6.40
2019-03-16T14:16:20.217Z,6.40
2019-03-16T14:17:24.632Z,6.40
2019-03-16T14:18:29.004Z,6.40
2019-03-16T14:19:33.349Z,6.30